createdAt,value
2018-12-06T00:00:00.459Z,98054.02
2018-12-06T00:02:29.904Z,98052.77
2018-12-06T00:04:59.300Z,98047.06
2018-12-06T00:07:28.716Z,98042.72
2018-12-06T00:09:58.133Z,98040.97
2018-12-06T00:12:27.520Z,98041.91
2018-12-06T00:15:32.881Z,98037.50
2018-12-06T00:18:02.280Z,98034.96
2018-12-06T00:20:31.727Z,98037.73
2018-12-06T00:23:01.269Z,98034.17
2018-12-06T00:25:30.765Z,98025.42
2018-12-06T00:28:00.169Z,98034.27
2018-12-06T00:30:40.291Z,98034.42
2018-12-06T00:33:09.987Z,98034.51
2018-12-06T00:35:39.409Z,98028.77
2018-12-06T00:38:08.933Z,98026.13
2018-12-06T00:40:38.326Z,98030.16
2018-12-06T00:43:08.357Z,98020.39
2018-12-06T00:45:37.851Z,98023.54
2018-12-06T00:48:07.364Z,98019.98
2018-12-06T00:50:36.771Z,98014.70
2018-12-06T00:53:06.203Z,98019.28
2018-12-06T00:55:35.621Z,98015.34
2018-12-06T00:58:05.054Z,98013.59
2018-12-06T01:00:34.439Z,98011.97
2018-12-06T01:03:03.896Z,98006.59
2018-12-06T01:05:33.296Z,98006.59
2018-12-06T01:08:02.705Z,98012.02
2018-12-06T01:10:32.110Z,98007.06
2018-12-06T01:13:01.599Z,98004.06
2018-12-06T01:15:31.080Z,98005.95
2018-12-06T01:18:00.489Z,98009.98
2018-12-06T01:20:29.904Z,98000.21
2018-12-06T01:22:59.312Z,98002.95
2018-12-06T01:25:28.736Z,97999.42
2018-12-06T01:27:58.128Z,97990.50
2018-12-06T01:30:27.551Z,97987.81
2018-12-06T01:32:56.936Z,97984.72
2018-12-06T01:35:26.370Z,97977.16
2018-12-06T01:37:55.760Z,97977.62
2018-12-06T01:40:25.186Z,97973.19
2018-12-06T01:42:54.632Z,97965.64
2018-12-06T01:45:24.048Z,97962.17
2018-12-06T01:47:53.431Z,97959.55
2018-12-06T01:50:23.995Z,97955.05
2018-12-06T01:52:53.394Z,97944.41
2018-12-06T01:55:22.822Z,97931.22
2018-12-06T01:57:52.335Z,97938.72
2018-12-06T02:00:21.780Z,97932.56
2018-12-06T02:02:52.005Z,97932.56
2018-12-06T02:05:21.429Z,97932.56
2018-12-06T02:07:50.812Z,97936.22
2018-12-06T02:10:20.229Z,97930.91
2018-12-06T02:12:49.623Z,97925.53
2018-12-06T02:15:19.013Z,97928.72
2018-12-06T02:17:48.436Z,97926.03
2018-12-06T02:20:17.843Z,97922.47
2018-12-06T02:22:47.280Z,97918.04
2018-12-06T02:25:16.668Z,97913.64
2018-12-06T02:27:46.111Z,97917.75
2018-12-06T02:30:15.501Z,97922.63
2018-12-06T02:32:44.973Z,97916.41
2018-12-06T02:35:14.438Z,97917.81
2018-12-06T02:37:43.931Z,97906.70
2018-12-06T02:40:14.665Z,97910.73
2018-12-06T02:42:44.173Z,97902.77
2018-12-06T02:45:13.762Z,97905.92
2018-12-06T02:47:44.241Z,97900.55
2018-12-06T02:50:13.693Z,97901.02
2018-12-06T02:52:43.184Z,97898.42
2018-12-06T02:55:12.639Z,97893.06
2018-12-06T02:57:42.131Z,97883.26
2018-12-06T03:00:11.589Z,97880.11
2018-12-06T03:02:41.097Z,97885.94
2018-12-06T03:05:10.549Z,97889.13
2018-12-06T03:07:40.025Z,97884.69
2018-12-06T03:10:09.477Z,97893.20
2018-12-06T03:12:38.936Z,97895.89
2018-12-06T03:15:08.380Z,97894.17
2018-12-06T03:17:37.861Z,97884.38
2018-12-06T03:20:07.845Z,97885.34
2018-12-06T03:22:37.300Z,97882.66
2018-12-06T03:25:06.766Z,97884.97
2018-12-06T03:27:36.249Z,97880.94
2018-12-06T03:30:06.386Z,97877.38
2018-12-06T03:32:35.923Z,97868.92
2018-12-06T03:35:05.529Z,97874.29
2018-12-06T03:37:34.993Z,97866.73
2018-12-06T03:40:04.555Z,97867.20
2018-12-06T03:42:34.048Z,97860.09
2018-12-06T03:45:03.528Z,97866.42
2018-12-06T03:47:33.003Z,97864.67
2018-12-06T03:50:02.481Z,97864.77
2018-12-06T03:52:31.918Z,97866.52
2018-12-06T03:55:01.389Z,97855.43
2018-12-06T03:57:30.860Z,97858.20
2018-12-06T04:00:00.345Z,97852.34
2018-12-06T04:02:29.809Z,97850.47
2018-12-06T04:04:59.300Z,97853.47
2018-12-06T04:07:28.783Z,97849.36
2018-12-06T04:09:58.276Z,97848.52
2018-12-06T04:12:27.717Z,97851.11
2018-12-06T04:14:57.197Z,97846.20
2018-12-06T04:17:26.877Z,97849.36
2018-12-06T04:19:56.363Z,97846.20
2018-12-06T04:22:25.787Z,97847.95
2018-12-06T04:24:55.193Z,97841.72
2018-12-06T04:27:24.606Z,97839.41
2018-12-06T04:29:54.025Z,97838.94
2018-12-06T04:32:23.452Z,97843.37
2018-12-06T04:34:52.844Z,97841.16
2018-12-06T04:37:22.259Z,97839.41
2018-12-06T04:39:51.649Z,97834.45
2018-12-06T04:42:21.084Z,97832.23
2018-12-06T04:44:50.508Z,97824.65
2018-12-06T04:47:19.924Z,97824.27
2018-12-06T04:49:49.306Z,97827.83
2018-12-06T04:52:18.730Z,97824.27
2018-12-06T04:54:48.144Z,97825.61
2018-12-06T04:57:17.564Z,97826.08
2018-12-06T04:59:47.069Z,97818.50
2018-12-06T05:02:16.444Z,97816.69
2018-12-06T05:04:45.860Z,97811.33
2018-12-06T05:07:15.264Z,97810.95
2018-12-06T05:09:44.652Z,97807.39
2018-12-06T05:12:14.062Z,97812.77
2018-12-06T05:14:43.452Z,97809.11
2018-12-06T05:17:12.836Z,97805.18
2018-12-06T05:19:42.250Z,97810.08
2018-12-06T05:22:11.667Z,97807.86
2018-12-06T05:24:41.065Z,97810.08
2018-12-06T05:27:10.448Z,97807.39
2018-12-06T05:29:39.854Z,97802.91
2018-12-06T05:32:09.261Z,97799.34
2018-12-06T05:34:38.680Z,97801.56
2018-12-06T05:37:08.096Z,97798.00
2018-12-06T05:39:37.496Z,97805.64
2018-12-06T05:42:06.934Z,97797.59
2018-12-06T05:44:36.384Z,97801.62
2018-12-06T05:47:05.832Z,97804.71
2018-12-06T05:49:35.292Z,97803.37
2018-12-06T05:52:04.671Z,97804.62
2018-12-06T05:54:34.315Z,97798.78
2018-12-06T05:57:03.702Z,97801.84
2018-12-06T05:59:33.113Z,97798.22
2018-12-06T06:02:02.516Z,97796.47
2018-12-06T06:04:31.908Z,97800.03
2018-12-06T06:07:02.311Z,97802.34
2018-12-06T06:09:31.811Z,97796.47
2018-12-06T06:12:01.616Z,97798.22
2018-12-06T06:14:31.016Z,97796.01
2018-12-06T06:17:00.397Z,97801.78
2018-12-06T06:19:29.776Z,97800.34
2018-12-06T06:21:59.160Z,97794.57
2018-12-06T06:24:28.564Z,97797.66
2018-12-06T06:26:57.966Z,97797.76
2018-12-06T06:29:27.348Z,97794.20
2018-12-06T06:31:56.759Z,97793.80
2018-12-06T06:34:26.870Z,97791.98
2018-12-06T06:36:56.358Z,97796.01
2018-12-06T06:39:25.750Z,97791.98
2018-12-06T06:41:55.154Z,97795.91
2018-12-06T06:44:24.593Z,97801.28
2018-12-06T06:46:54.065Z,97798.59
2018-12-06T06:49:23.464Z,97793.73
2018-12-06T06:51:52.875Z,97795.91
2018-12-06T06:54:22.260Z,97791.89
2018-12-06T06:56:51.668Z,97787.87
2018-12-06T06:59:26.121Z,97788.73
2018-12-06T07:01:52.557Z,97794.98
2018-12-06T07:04:21.966Z,97794.48
2018-12-06T07:06:51.365Z,97796.23
2018-12-06T07:09:20.760Z,97798.81
2018-12-06T07:11:50.165Z,97795.27
2018-12-06T07:14:19.567Z,97799.79
2018-12-06T07:16:49.214Z,97795.77
2018-12-06T07:19:18.623Z,97796.14
2018-12-06T07:21:48.018Z,97797.02
2018-12-06T07:24:17.434Z,97790.30
2018-12-06T07:26:46.922Z,97792.98
2018-12-06T07:29:16.607Z,97787.62
2018-12-06T07:31:45.989Z,97791.17
2018-12-06T07:34:15.426Z,97792.02
2018-12-06T07:36:44.857Z,97786.65
2018-12-06T07:39:14.260Z,97784.84
2018-12-06T07:41:43.654Z,97780.34
2018-12-06T07:44:13.080Z,97783.97
2018-12-06T07:46:42.676Z,97787.52
2018-12-06T07:49:12.073Z,97782.16
2018-12-06T07:51:41.614Z,97787.05
2018-12-06T07:54:11.149Z,97792.42
2018-12-06T07:56:40.613Z,97794.14
2018-12-06T07:59:10.009Z,97794.64
2018-12-06T08:01:39.477Z,97790.11
2018-12-06T08:04:08.900Z,97786.50
2018-12-06T08:06:38.317Z,97790.52
2018-12-06T08:09:09.551Z,97795.42
2018-12-06T08:11:38.940Z,97794.92
2018-12-06T08:14:08.336Z,97792.23
2018-12-06T08:16:37.743Z,97798.48
2018-12-06T08:19:07.124Z,97792.64
2018-12-06T08:21:36.520Z,97796.67
2018-12-06T08:24:05.938Z,97795.80
2018-12-06T08:26:35.380Z,97791.30
2018-12-06T08:29:04.773Z,97796.20
2018-12-06T08:31:34.196Z,97802.91
2018-12-06T08:34:06.398Z,97798.38
2018-12-06T08:36:35.037Z,97797.45
2018-12-06T08:39:05.253Z,97789.39
2018-12-06T08:41:35.824Z,97790.33
2018-12-06T08:44:05.261Z,97783.16
2018-12-06T08:46:34.688Z,97785.38
2018-12-06T08:49:04.077Z,97788.42
2018-12-06T08:51:33.501Z,97792.86
2018-12-06T08:54:02.909Z,97795.64
2018-12-06T08:56:32.320Z,97801.38
2018-12-06T08:59:01.704Z,97808.50
2018-12-06T09:01:31.117Z,97804.47
2018-12-06T09:04:00.558Z,97807.16
2018-12-06T09:06:29.977Z,97807.53
2018-12-06T09:08:59.380Z,97812.42
2018-12-06T09:11:28.784Z,97809.34
2018-12-06T09:13:58.168Z,97812.89
2018-12-06T09:16:27.585Z,97814.23
2018-12-06T09:18:56.988Z,97815.98
2018-12-06T09:21:26.391Z,97817.80
2018-12-06T09:23:55.761Z,97817.89
2018-12-06T09:26:25.172Z,97818.17
2018-12-06T09:28:54.582Z,97817.70
2018-12-06T09:31:23.987Z,97824.88
2018-12-06T09:34:08.765Z,97820.02
2018-12-06T09:36:38.979Z,97818.73
2018-12-06T09:39:09.813Z,97821.35
2018-12-06T09:41:39.216Z,97822.70
2018-12-06T09:44:08.734Z,97824.88
2018-12-06T09:46:38.137Z,97828.44
2018-12-06T09:49:07.554Z,97828.44
2018-12-06T09:51:37.600Z,97817.70
2018-12-06T09:54:07.184Z,97823.95
2018-12-06T09:56:36.598Z,97820.85
2018-12-06T09:59:06.255Z,97820.80
2018-12-06T10:01:35.654Z,97819.45
2018-12-06T10:04:05.930Z,97824.41
2018-12-06T10:06:35.321Z,97819.45
2018-12-06T10:09:06.926Z,97821.64
2018-12-06T10:11:37.468Z,97818.11
2018-12-06T10:14:06.895Z,97804.94
2018-12-06T10:16:36.312Z,97809.19
2018-12-06T10:19:05.736Z,97810.52
2018-12-06T10:21:35.133Z,97815.89
2018-12-06T10:24:04.544Z,97810.99
2018-12-06T10:26:33.936Z,97812.80
2018-12-06T10:29:03.344Z,97806.03
2018-12-06T10:31:32.760Z,97804.69
2018-12-06T10:34:02.141Z,97804.69
2018-12-06T10:36:31.557Z,97803.81
2018-12-06T10:39:00.948Z,97807.38
2018-12-06T10:41:31.717Z,97799.79
2018-12-06T10:44:01.168Z,97810.90
2018-12-06T10:46:30.564Z,97803.81
2018-12-06T10:48:59.949Z,97810.43
2018-12-06T10:51:41.673Z,97796.11
2018-12-06T10:54:11.202Z,97804.19
2018-12-06T10:56:40.597Z,97809.56
2018-12-06T10:59:09.981Z,97810.06
2018-12-06T11:01:44.614Z,97811.40
2018-12-06T11:04:14.000Z,97807.84
2018-12-06T11:06:43.381Z,97809.19
2018-12-06T11:09:12.764Z,97806.97
2018-12-06T11:11:42.186Z,97810.06
2018-12-06T11:14:11.581Z,97808.31
2018-12-06T11:16:41.013Z,97808.31
2018-12-06T11:19:10.416Z,97805.16
2018-12-06T11:21:39.816Z,97798.91
2018-12-06T11:24:09.252Z,97795.86
2018-12-06T11:26:38.636Z,97797.57
2018-12-06T11:29:08.066Z,97800.25
2018-12-06T11:31:37.476Z,97798.14
2018-12-06T11:34:06.993Z,97795.92
2018-12-06T11:36:36.384Z,97789.61
2018-12-06T11:39:08.300Z,97794.02
2018-12-06T11:41:43.045Z,97795.36
2018-12-06T11:44:09.231Z,97801.22
2018-12-06T11:46:38.625Z,97805.25
2018-12-06T11:49:08.188Z,97806.97
2018-12-06T11:51:37.584Z,97807.44
2018-12-06T11:54:07.102Z,97802.06
2018-12-06T11:56:36.893Z,97801.22
2018-12-06T11:59:07.220Z,97802.56
2018-12-06T12:01:36.612Z,97798.54
2018-12-06T12:04:06.096Z,97802.94
2018-12-06T12:06:35.517Z,97800.72
2018-12-06T12:09:07.564Z,97801.69
2018-12-06T12:11:37.012Z,97806.59
2018-12-06T12:14:07.548Z,97807.94
2018-12-06T12:16:36.942Z,97806.97
2018-12-06T12:19:06.352Z,97808.77
2018-12-06T12:21:35.748Z,97805.25
2018-12-06T12:24:06.531Z,97805.72
2018-12-06T12:26:35.940Z,97809.28
2018-12-06T12:29:05.706Z,97801.22
2018-12-06T12:31:35.117Z,97799.01
2018-12-06T12:34:04.536Z,97792.30
2018-12-06T12:36:33.933Z,97793.23
2018-12-06T12:39:03.364Z,97799.94
2018-12-06T12:41:32.764Z,97803.03
2018-12-06T12:44:02.163Z,97791.05
2018-12-06T12:46:32.176Z,97795.92
2018-12-06T12:49:01.571Z,97795.92
2018-12-06T12:51:30.989Z,97799.94
2018-12-06T12:54:00.401Z,97803.97
2018-12-06T12:56:29.823Z,97795.08
2018-12-06T12:58:59.208Z,97794.20
2018-12-06T13:01:28.620Z,97797.77
2018-12-06T13:03:58.033Z,97794.58
2018-12-06T13:06:27.580Z,97791.05
2018-12-06T13:08:57.853Z,97791.98
2018-12-06T13:11:27.300Z,97791.05
2018-12-06T13:14:40.900Z,97792.30
2018-12-06T13:17:10.398Z,97793.23
2018-12-06T13:19:40.413Z,97796.42
2018-12-06T13:22:09.837Z,97791.42
2018-12-06T13:24:39.253Z,97799.01
2018-12-06T13:27:09.596Z,97804.75
2018-12-06T13:29:38.976Z,97803.50
2018-12-06T13:32:09.531Z,97806.19
2018-12-06T13:34:38.932Z,97817.70
2018-12-06T13:37:08.482Z,97802.47
2018-12-06T13:39:37.900Z,97804.19
2018-12-06T13:42:07.368Z,97805.06
2018-12-06T13:44:36.787Z,97810.34
2018-12-06T13:47:06.244Z,97794.73
2018-12-06T13:49:36.974Z,97798.35
2018-12-06T13:52:06.457Z,97786.68
2018-12-06T13:54:35.917Z,97784.84
2018-12-06T13:57:05.325Z,97774.09
2018-12-06T13:59:34.782Z,97777.66
2018-12-06T14:02:05.259Z,97776.31
2018-12-06T14:04:34.766Z,97771.05
2018-12-06T14:07:04.252Z,97763.86
2018-12-06T14:09:33.639Z,97760.30
2018-12-06T14:12:03.040Z,97759.84
2018-12-06T14:14:32.439Z,97755.03
2018-12-06T14:17:01.846Z,97751.84
2018-12-06T14:19:31.248Z,97755.03
2018-12-06T14:22:00.640Z,97764.89
2018-12-06T14:24:30.067Z,97765.45
2018-12-06T14:26:59.471Z,97770.83
2018-12-06T14:29:28.880Z,97769.02
2018-12-06T14:31:58.272Z,97770.36
2018-12-06T14:34:27.697Z,97780.22
2018-12-06T14:37:02.198Z,97779.81
2018-12-06T14:39:28.984Z,97783.84
2018-12-06T14:41:58.382Z,97782.13
2018-12-06T14:44:27.820Z,97779.03
2018-12-06T14:46:57.290Z,97774.08
2018-12-06T14:49:26.796Z,97784.81
2018-12-06T14:51:56.194Z,97787.02
2018-12-06T14:54:25.637Z,97784.34
2018-12-06T14:56:55.032Z,97793.73
2018-12-06T14:59:24.436Z,97795.55
2018-12-06T15:01:54.093Z,97784.91
2018-12-06T15:04:23.533Z,97784.50
2018-12-06T15:06:53.528Z,97784.91
2018-12-06T15:09:22.932Z,97794.30
2018-12-06T15:11:52.365Z,97793.02
2018-12-06T15:14:21.905Z,97790.33
2018-12-06T15:16:51.324Z,97796.98
2018-12-06T15:19:20.709Z,97800.13
2018-12-06T15:21:50.116Z,97801.56
2018-12-06T15:24:19.548Z,97800.23
2018-12-06T15:26:48.948Z,97799.82
2018-12-06T15:29:18.353Z,97811.42
2018-12-06T15:31:47.739Z,97804.25
2018-12-06T15:34:17.152Z,97797.55
2018-12-06T15:36:46.549Z,97793.11
2018-12-06T15:39:15.933Z,97786.40
2018-12-06T15:41:45.363Z,97790.42
2018-12-06T15:44:14.829Z,97791.77
2018-12-06T15:46:44.239Z,97785.05
2018-12-06T15:49:13.620Z,97781.50
2018-12-06T15:51:43.512Z,97778.91
2018-12-06T15:54:12.928Z,97777.88
2018-12-06T15:56:42.328Z,97758.63
2018-12-06T15:59:11.770Z,97742.12
2018-12-06T16:01:41.195Z,97745.20
2018-12-06T16:04:10.610Z,97747.11
2018-12-06T16:06:40.002Z,97767.61
2018-12-06T16:09:09.452Z,97777.47
2018-12-06T16:11:40.893Z,97787.74
2018-12-06T16:14:10.297Z,97790.52
2018-12-06T16:16:39.690Z,97805.66
2018-12-06T16:19:09.123Z,97794.55
2018-12-06T16:21:38.521Z,97786.50
2018-12-06T16:24:08.141Z,97792.80
2018-12-06T16:26:37.552Z,97791.45
2018-12-06T16:29:06.995Z,97794.14
2018-12-06T16:31:36.377Z,97792.80
2018-12-06T16:34:05.879Z,97801.25
2018-12-06T16:36:35.268Z,97796.35
2018-12-06T16:39:07.100Z,97793.67
2018-12-06T16:41:36.530Z,97791.45
2018-12-06T16:44:06.152Z,97797.70
2018-12-06T16:46:35.532Z,97795.89
2018-12-06T16:49:10.040Z,97805.28
2018-12-06T16:51:36.473Z,97803.94
2018-12-06T16:54:06.996Z,97800.38
2018-12-06T16:56:36.412Z,97801.72
2018-12-06T16:59:05.857Z,97797.70
2018-12-06T17:01:35.240Z,97795.48
2018-12-06T17:04:04.804Z,97800.38
2018-12-06T17:06:34.272Z,97799.45
2018-12-06T17:09:05.708Z,97800.47
2018-12-06T17:11:37.661Z,97805.37
2018-12-06T17:14:07.145Z,97812.08
2018-12-06T17:16:36.539Z,97810.64
2018-12-06T17:19:05.948Z,97815.55
2018-12-06T17:21:35.582Z,97820.51
2018-12-06T17:24:06.788Z,97820.97
2018-12-06T17:26:36.243Z,97813.42
2018-12-06T17:29:06.677Z,97805.75
2018-12-06T17:31:36.061Z,97803.53
2018-12-06T17:34:05.500Z,97785.97
2018-12-06T17:36:34.905Z,97804.03
2018-12-06T17:39:05.609Z,97807.56
2018-12-06T17:41:35.035Z,97799.04
2018-12-06T17:44:04.469Z,97806.16
2018-12-06T17:46:34.090Z,97804.31
2018-12-06T17:49:03.493Z,97788.71
2018-12-06T17:51:33.317Z,97781.03
2018-12-06T17:54:02.757Z,97782.84
2018-12-06T17:56:32.242Z,97778.81
2018-12-06T17:59:01.636Z,97788.71
2018-12-06T18:01:31.087Z,97777.00
2018-12-06T18:04:00.512Z,97779.69
2018-12-06T18:06:29.934Z,97780.09
2018-12-06T18:08:59.628Z,97786.80
2018-12-06T18:11:29.050Z,97775.57
2018-12-06T18:13:58.453Z,97787.18
2018-12-06T18:16:27.860Z,97791.61
2018-12-06T18:18:57.297Z,97787.59
2018-12-06T18:21:26.681Z,97783.63
2018-12-06T18:23:56.097Z,97776.85
2018-12-06T18:26:25.832Z,97774.55
2018-12-06T18:28:55.253Z,97765.55
2018-12-06T18:31:24.673Z,97758.53
2018-12-06T18:33:54.125Z,97756.16
2018-12-06T18:36:23.540Z,97755.19
2018-12-06T18:38:52.983Z,97755.03
2018-12-06T18:41:23.990Z,97758.09
2018-12-06T18:43:53.433Z,97767.11
2018-12-06T18:46:22.853Z,97766.61
2018-12-06T18:48:52.521Z,97777.34
2018-12-06T18:51:22.024Z,97787.52
2018-12-06T18:53:51.781Z,97778.62
2018-12-06T18:56:21.340Z,97772.29
2018-12-06T18:58:51.808Z,97787.46
2018-12-06T19:01:21.270Z,97799.44
2018-12-06T19:03:50.698Z,97799.81
2018-12-06T19:06:20.980Z,97812.30
2018-12-06T19:08:50.456Z,97818.55
2018-12-06T19:11:19.862Z,97811.34
2018-12-06T19:13:49.318Z,97812.20
2018-12-06T19:16:18.852Z,97813.95
2018-12-06T19:18:48.337Z,97816.14
2018-12-06T19:21:17.820Z,97810.77
2018-12-06T19:23:47.238Z,97806.27
2018-12-06T19:26:17.354Z,97804.47
2018-12-06T19:28:46.754Z,97797.28
2018-12-06T19:31:16.185Z,97800.34
2018-12-06T19:33:45.850Z,97794.04
2018-12-06T19:36:15.337Z,97793.47
2018-12-06T19:38:44.782Z,97796.63
2018-12-06T19:41:14.260Z,97796.16
2018-12-06T19:43:44.714Z,97798.28
2018-12-06T19:46:14.196Z,97800.56
2018-12-06T19:48:45.044Z,97799.22
2018-12-06T19:51:14.885Z,97807.68
2018-12-06T19:53:44.300Z,97804.80
2018-12-06T19:56:14.337Z,97812.95
2018-12-06T19:58:43.766Z,97801.65
2018-12-06T20:01:13.297Z,97801.95
2018-12-06T20:03:42.735Z,97800.11
2018-12-06T20:06:12.176Z,97801.95
2018-12-06T20:08:42.030Z,97805.48
2018-12-06T20:11:11.706Z,97806.45
2018-12-06T20:13:41.305Z,97803.30
2018-12-06T20:16:11.502Z,97812.30
2018-12-06T20:18:41.232Z,97814.51
2018-12-06T20:21:11.106Z,97809.14
2018-12-06T20:23:41.181Z,97805.98
2018-12-06T20:26:11.014Z,97805.89
2018-12-06T20:28:40.648Z,97812.60
2018-12-06T20:31:11.269Z,97800.61
2018-12-06T20:33:41.335Z,97798.70
2018-12-06T20:36:10.884Z,97807.23
2018-12-06T20:38:40.668Z,97801.91
2018-12-06T20:41:10.946Z,97826.03
2018-12-06T20:43:40.994Z,97837.14
2018-12-06T20:46:11.964Z,97846.55
2018-12-06T20:48:42.276Z,97839.83
2018-12-06T20:51:11.753Z,97837.92
2018-12-06T20:53:41.207Z,97837.36
2018-12-06T20:56:10.669Z,97832.86
2018-12-06T20:58:41.817Z,97810.70
2018-12-06T21:01:11.512Z,97817.06
2018-12-06T21:03:41.065Z,97804.97
2018-12-06T21:06:10.602Z,97813.03
2018-12-06T21:08:41.350Z,97810.34
2018-12-06T21:11:11.220Z,97811.59
2018-12-06T21:13:40.837Z,97811.59
2018-12-06T21:16:10.498Z,97798.16
2018-12-06T21:18:41.975Z,97788.20
2018-12-06T21:21:12.011Z,97787.33
2018-12-06T21:23:41.785Z,97798.47
2018-12-06T21:26:12.405Z,97802.88
2018-12-06T21:28:41.897Z,97801.53
2018-12-06T21:31:11.410Z,97801.16
2018-12-06T21:33:43.809Z,97795.78
2018-12-06T21:36:14.447Z,97802.41
2018-12-06T21:38:44.285Z,97812.58
2018-12-06T21:41:13.903Z,97817.08
2018-12-06T21:43:43.427Z,97827.26
2018-12-06T21:46:13.805Z,97825.91
2018-12-06T21:48:43.233Z,97809.59
2018-12-06T21:51:12.653Z,97817.86
2018-12-06T21:53:42.057Z,97811.14
2018-12-06T21:56:11.458Z,97808.86
2018-12-06T21:58:40.873Z,97805.20
2018-12-06T22:01:10.313Z,97814.14
2018-12-06T22:03:39.723Z,97815.02
2018-12-06T22:06:09.136Z,97813.67
2018-12-06T22:08:38.560Z,97809.23
2018-12-06T22:11:07.971Z,97805.20
2018-12-06T22:13:37.376Z,97811.92
2018-12-06T22:16:06.794Z,97815.11
2018-12-06T22:18:36.193Z,97832.06
2018-12-06T22:21:05.909Z,97826.22
2018-12-06T22:23:35.345Z,97809.17
2018-12-06T22:26:04.781Z,97816.36
2018-12-06T22:28:34.465Z,97815.38
2018-12-06T22:31:03.953Z,97811.23
2018-12-06T22:33:33.389Z,97806.23
2018-12-06T22:36:02.813Z,97805.75
2018-12-06T22:38:34.249Z,97799.04
2018-12-06T22:41:03.728Z,97799.45
2018-12-06T22:43:33.129Z,97807.00
2018-12-06T22:46:02.569Z,97802.12
2018-12-06T22:48:32.006Z,97795.31
2018-12-06T22:51:01.485Z,97787.36
2018-12-06T22:53:30.912Z,97792.23
2018-12-06T22:56:00.325Z,97793.57
2018-12-06T22:58:29.745Z,97795.41
2018-12-06T23:01:00.061Z,97798.17
2018-12-06T23:03:32.152Z,97795.11
2018-12-06T23:06:01.602Z,97801.36
2018-12-06T23:08:31.041Z,97804.98
2018-12-06T23:11:00.451Z,97807.26
2018-12-06T23:13:29.885Z,97797.45
2018-12-06T23:15:59.295Z,97796.11
2018-12-06T23:18:28.721Z,97799.77
2018-12-06T23:20:58.137Z,97800.61
2018-12-06T23:23:27.597Z,97795.43
2018-12-06T23:25:57.103Z,97788.31
2018-12-06T23:28:27.480Z,97776.73
2018-12-06T23:30:56.912Z,97763.77
2018-12-06T23:33:31.928Z,97760.30
2018-12-06T23:35:57.756Z,97756.27
2018-12-06T23:38:27.565Z,97757.22
2018-12-06T23:40:57.109Z,97748.89
2018-12-06T23:43:26.537Z,97748.48
2018-12-06T23:45:57.257Z,97747.23
2018-12-06T23:48:27.753Z,97750.86
2018-12-06T23:51:07.056Z,97746.92
2018-12-06T23:53:37.525Z,97746.45
2018-12-06T23:56:07.226Z,97745.21
2018-12-06T23:58:36.629Z,97739.34
